createdAt,value
2019-01-20T00:02:04.929Z,8.95
2019-01-20T00:04:35.941Z,8.85
2019-01-20T00:07:05.708Z,9.23
2019-01-20T00:09:35.439Z,8.78
2019-01-20T00:12:05.333Z,10.03
2019-01-20T00:14:34.973Z,9.28
2019-01-20T00:17:04.656Z,9.60
2019-01-20T00:19:35.401Z,9.00
2019-01-20T00:22:05.140Z,8.88
2019-01-20T00:24:34.813Z,9.55
2019-01-20T00:27:04.443Z,9.55
2019-01-20T00:29:34.177Z,8.95
2019-01-20T00:32:03.839Z,9.08
2019-01-20T00:34:33.487Z,9.85
2019-01-20T00:37:03.163Z,9.30
2019-01-20T00:39:32.797Z,8.83
2019-01-20T00:42:02.485Z,9.05
2019-01-20T00:44:32.129Z,8.78
2019-01-20T00:47:01.791Z,9.45
2019-01-20T00:49:31.516Z,8.85
2019-01-20T00:52:02.263Z,8.53
2019-01-20T00:54:32.060Z,9.70
2019-01-20T00:57:01.678Z,9.65
2019-01-20T00:59:31.380Z,8.85
2019-01-20T01:02:01.263Z,9.10
2019-01-20T01:04:31.013Z,9.23
2019-01-20T01:07:00.614Z,9.05
2019-01-20T01:09:30.361Z,8.75
2019-01-20T01:12:00.027Z,8.65
2019-01-20T01:14:29.680Z,9.20
2019-01-20T01:16:59.355Z,9.25
2019-01-20T01:19:28.990Z,9.18
2019-01-20T01:21:58.678Z,8.75
2019-01-20T01:24:28.348Z,8.88
2019-01-20T01:26:57.913Z,8.53
2019-01-20T01:29:27.599Z,8.35
2019-01-20T01:31:57.230Z,8.40
2019-01-20T01:34:27.028Z,8.08
2019-01-20T01:36:56.653Z,8.28
2019-01-20T01:39:26.356Z,7.95
2019-01-20T01:41:56.054Z,8.50
2019-01-20T01:44:25.698Z,7.85
2019-01-20T01:46:55.489Z,8.55
2019-01-20T01:49:25.107Z,8.48
2019-01-20T01:51:54.792Z,8.43
2019-01-20T01:54:24.428Z,8.23
2019-01-20T01:56:54.110Z,8.05
2019-01-20T01:59:23.744Z,7.95
2019-01-20T02:01:53.353Z,8.18
2019-01-20T02:04:23.062Z,7.62
2019-01-20T02:06:52.749Z,7.83
2019-01-20T02:09:22.487Z,7.95
2019-01-20T02:11:52.094Z,7.95
2019-01-20T02:14:21.868Z,7.70
2019-01-20T02:16:51.505Z,7.22
2019-01-20T02:19:21.212Z,7.45
2019-01-20T02:21:50.916Z,7.40
2019-01-20T02:24:20.454Z,7.70
2019-01-20T02:26:50.128Z,7.25
2019-01-20T02:29:19.753Z,7.85
2019-01-20T02:31:49.449Z,7.30
2019-01-20T02:34:19.172Z,7.25
2019-01-20T02:36:48.798Z,7.22
2019-01-20T02:39:18.495Z,6.95
2019-01-20T02:41:55.023Z,6.85
2019-01-20T02:44:19.551Z,7.15
2019-01-20T02:46:49.167Z,6.85
2019-01-20T02:49:18.868Z,7.50
2019-01-20T02:51:48.505Z,7.12
2019-01-20T02:54:18.181Z,7.60
2019-01-20T02:56:47.890Z,6.37
2019-01-20T02:59:17.542Z,6.47
2019-01-20T03:01:47.384Z,7.67
2019-01-20T03:04:17.055Z,7.10
2019-01-20T03:06:46.725Z,6.40
2019-01-20T03:09:16.386Z,7.00
2019-01-20T03:11:46.054Z,6.50
2019-01-20T03:14:15.678Z,6.92
2019-01-20T03:16:45.420Z,7.37
2019-01-20T03:19:15.084Z,6.97
2019-01-20T03:21:44.806Z,6.70
2019-01-20T03:24:14.501Z,6.65
2019-01-20T03:26:44.145Z,7.08
2019-01-20T03:29:13.815Z,6.22
2019-01-20T03:31:43.604Z,6.15
2019-01-20T03:34:13.341Z,6.35
2019-01-20T03:36:42.878Z,6.83
2019-01-20T03:39:12.565Z,6.85
2019-01-20T03:41:42.193Z,6.45
2019-01-20T03:44:11.884Z,6.55
2019-01-20T03:46:41.601Z,6.22
2019-01-20T03:49:11.220Z,6.08
2019-01-20T03:51:40.920Z,6.15
2019-01-20T03:54:10.568Z,6.80
2019-01-20T03:56:40.341Z,6.20
2019-01-20T03:59:09.972Z,6.25
2019-01-20T04:01:39.664Z,6.28
2019-01-20T04:04:09.369Z,5.90
2019-01-20T04:06:39.081Z,5.75
2019-01-20T04:09:09.111Z,5.87
2019-01-20T04:11:38.831Z,5.60
2019-01-20T04:14:08.427Z,6.00
2019-01-20T04:16:38.149Z,6.80
2019-01-20T04:19:07.833Z,5.95
2019-01-20T04:21:37.570Z,5.50
2019-01-20T04:24:07.362Z,6.00
2019-01-20T04:26:37.017Z,6.03
2019-01-20T04:29:06.676Z,6.05
2019-01-20T04:31:36.325Z,5.55
2019-01-20T04:34:06.001Z,5.83
2019-01-20T04:36:35.642Z,5.60
2019-01-20T04:39:07.203Z,5.83
2019-01-20T04:41:36.912Z,5.60
2019-01-20T04:44:06.683Z,5.70
2019-01-20T04:46:36.418Z,5.58
2019-01-20T04:49:06.010Z,5.50
2019-01-20T04:51:35.646Z,5.50
2019-01-20T04:54:05.698Z,5.58
2019-01-20T04:56:35.378Z,5.03
2019-01-20T04:59:05.054Z,5.50
2019-01-20T05:01:34.687Z,5.10
2019-01-20T05:04:04.366Z,5.22
2019-01-20T05:06:34.086Z,5.00
2019-01-20T05:09:04.302Z,5.00
2019-01-20T05:11:33.839Z,4.85
2019-01-20T05:14:03.518Z,5.40
2019-01-20T05:16:33.238Z,4.87
2019-01-20T05:19:02.950Z,4.97
2019-01-20T05:21:32.683Z,5.15
2019-01-20T05:24:02.277Z,5.08
2019-01-20T05:26:31.978Z,5.17
2019-01-20T05:29:01.620Z,5.05
2019-01-20T05:31:31.305Z,4.70
2019-01-20T05:34:00.915Z,5.30
2019-01-20T05:36:30.592Z,4.85
2019-01-20T05:39:00.255Z,4.95
2019-01-20T05:41:29.865Z,4.65
2019-01-20T05:43:59.441Z,5.10
2019-01-20T05:46:29.153Z,5.10
2019-01-20T05:48:58.859Z,4.78
2019-01-20T05:51:28.594Z,5.45
2019-01-20T05:53:58.203Z,4.85
2019-01-20T05:56:27.897Z,5.12
2019-01-20T05:58:57.577Z,5.03
2019-01-20T06:01:27.398Z,4.80
2019-01-20T06:03:57.031Z,4.90
2019-01-20T06:06:26.749Z,5.05
2019-01-20T06:08:56.368Z,4.20
2019-01-20T06:11:26.161Z,4.97
2019-01-20T06:13:55.767Z,4.83
2019-01-20T06:16:25.497Z,4.55
2019-01-20T06:18:55.179Z,5.33
2019-01-20T06:21:24.831Z,5.70
2019-01-20T06:23:54.622Z,5.40
2019-01-20T06:26:24.253Z,6.28
2019-01-20T06:28:54.148Z,10.18
2019-01-20T06:31:23.753Z,15.88
2019-01-20T06:33:53.458Z,19.70
2019-01-20T06:36:23.094Z,24.15
2019-01-20T06:38:52.783Z,27.00
2019-01-20T06:41:22.651Z,32.17
2019-01-20T06:43:52.330Z,35.38
2019-01-20T06:46:22.117Z,34.23
2019-01-20T06:48:51.791Z,34.63
2019-01-20T06:51:21.542Z,35.13
2019-01-20T06:53:51.180Z,34.65
2019-01-20T06:56:20.851Z,34.85
2019-01-20T06:58:50.522Z,33.80
2019-01-20T07:01:20.184Z,34.10
2019-01-20T07:03:49.890Z,34.45
2019-01-20T07:06:19.630Z,33.33
2019-01-20T07:08:49.206Z,33.38
2019-01-20T07:11:18.825Z,30.70
2019-01-20T07:13:48.534Z,31.73
2019-01-20T07:16:18.275Z,30.60
2019-01-20T07:18:49.505Z,30.37
2019-01-20T07:21:19.296Z,29.63
2019-01-20T07:23:49.033Z,30.15
2019-01-20T07:26:18.713Z,29.18
2019-01-20T07:28:48.366Z,29.35
2019-01-20T07:31:17.930Z,28.62
2019-01-20T07:33:47.583Z,28.30
2019-01-20T07:36:17.182Z,27.60
2019-01-20T07:38:46.780Z,28.17
2019-01-20T07:41:16.383Z,27.25
2019-01-20T07:43:46.081Z,26.48
2019-01-20T07:46:15.743Z,26.15
2019-01-20T07:48:45.526Z,26.73
2019-01-20T07:51:15.231Z,26.12
2019-01-20T07:53:44.925Z,24.87
2019-01-20T07:56:16.016Z,25.80
2019-01-20T07:58:45.775Z,24.98
2019-01-20T08:01:15.613Z,24.67
2019-01-20T08:03:45.694Z,24.90
2019-01-20T08:06:15.517Z,24.47
2019-01-20T08:08:45.257Z,24.65
2019-01-20T08:11:14.981Z,23.47
2019-01-20T08:13:44.678Z,23.38
2019-01-20T08:16:14.395Z,24.57
2019-01-20T08:18:44.082Z,17.07
2019-01-20T08:21:13.786Z,22.22
2019-01-20T08:23:43.413Z,21.45
2019-01-20T08:26:13.101Z,20.35
2019-01-20T08:28:43.201Z,22.52
2019-01-20T08:31:14.280Z,21.40
2019-01-20T08:33:43.905Z,20.30
2019-01-20T08:36:13.584Z,21.17
2019-01-20T08:38:43.319Z,20.02
2019-01-20T08:41:13.012Z,19.95
2019-01-20T08:43:42.628Z,19.55
2019-01-20T08:46:40.293Z,20.05
2019-01-20T08:49:10.105Z,20.12
2019-01-20T08:51:41.394Z,20.02
2019-01-20T08:54:11.061Z,19.07
2019-01-20T08:56:40.777Z,19.42
2019-01-20T08:59:10.499Z,19.10
2019-01-20T09:01:40.103Z,19.15
2019-01-20T09:04:09.801Z,18.23
2019-01-20T09:06:39.435Z,17.70
2019-01-20T09:09:09.881Z,18.12
2019-01-20T09:11:39.547Z,18.15
2019-01-20T09:14:09.274Z,17.50
2019-01-20T09:16:38.890Z,18.15
2019-01-20T09:19:08.589Z,16.30
2019-01-20T09:21:38.206Z,14.35
2019-01-20T09:24:07.693Z,12.73
2019-01-20T09:26:37.434Z,11.45
2019-01-20T09:29:07.238Z,10.90
2019-01-20T09:31:37.067Z,9.18
2019-01-20T09:34:06.658Z,9.18
2019-01-20T09:36:36.844Z,9.48
2019-01-20T09:39:12.768Z,8.75
2019-01-20T09:41:42.590Z,8.58
2019-01-20T09:44:12.274Z,8.73
2019-01-20T09:46:42.104Z,7.50
2019-01-20T09:49:11.717Z,7.85
2019-01-20T09:51:41.702Z,8.00
2019-01-20T09:54:11.323Z,7.35
2019-01-20T09:56:40.993Z,7.30
2019-01-20T09:59:10.649Z,7.72
2019-01-20T10:01:40.325Z,7.83
2019-01-20T10:04:10.041Z,7.90
2019-01-20T10:06:39.770Z,8.03
2019-01-20T10:09:09.674Z,8.28
2019-01-20T10:11:39.372Z,8.78
2019-01-20T10:14:09.089Z,8.50
2019-01-20T10:16:38.724Z,8.88
2019-01-20T10:19:08.400Z,9.33
2019-01-20T10:21:38.138Z,8.85
2019-01-20T10:24:07.916Z,9.15
2019-01-20T10:26:37.971Z,9.55
2019-01-20T10:29:09.077Z,9.20
2019-01-20T10:31:38.754Z,9.28
2019-01-20T10:34:08.527Z,9.53
2019-01-20T10:36:38.056Z,8.73
2019-01-20T10:39:11.030Z,9.08
2019-01-20T10:41:40.898Z,9.23
2019-01-20T10:44:10.616Z,9.18
2019-01-20T10:46:40.403Z,8.93
2019-01-20T10:49:10.185Z,9.48
2019-01-20T10:51:39.894Z,9.63
2019-01-20T10:54:09.575Z,9.20
2019-01-20T10:56:39.296Z,8.90
2019-01-20T10:59:09.033Z,8.65
2019-01-20T11:01:38.821Z,8.70
2019-01-20T11:04:08.666Z,8.55
2019-01-20T11:06:38.456Z,8.88
2019-01-20T11:09:08.155Z,8.40
2019-01-20T11:11:37.947Z,8.50
2019-01-20T11:14:09.689Z,8.75
2019-01-20T11:16:39.857Z,8.25
2019-01-20T11:19:09.538Z,8.68
2019-01-20T11:21:39.397Z,8.60
2019-01-20T11:24:09.104Z,8.58
2019-01-20T11:26:38.948Z,8.33
2019-01-20T11:29:08.899Z,7.92
2019-01-20T11:31:38.645Z,8.00
2019-01-20T11:34:08.583Z,7.92
2019-01-20T11:36:38.409Z,7.95
2019-01-20T11:39:10.686Z,8.73
2019-01-20T11:41:40.343Z,8.63
2019-01-20T11:44:16.652Z,8.88
2019-01-20T11:46:41.738Z,7.83
2019-01-20T11:49:11.411Z,8.40
2019-01-20T11:51:41.156Z,7.92
2019-01-20T11:54:10.855Z,7.83
2019-01-20T11:56:40.493Z,7.83
2019-01-20T11:59:10.091Z,7.70
2019-01-20T12:01:39.969Z,7.25
2019-01-20T12:04:09.822Z,7.47
2019-01-20T12:06:39.659Z,7.60
2019-01-20T12:09:09.833Z,7.10
2019-01-20T12:11:39.638Z,7.12
2019-01-20T12:14:09.444Z,7.03
2019-01-20T12:16:39.264Z,7.60
2019-01-20T12:19:08.858Z,6.87
2019-01-20T12:21:38.540Z,7.03
2019-01-20T12:24:08.388Z,6.72
2019-01-20T12:26:38.044Z,7.03
2019-01-20T12:29:07.801Z,6.95
2019-01-20T12:31:37.460Z,7.30
2019-01-20T12:34:07.051Z,7.00
2019-01-20T12:36:36.938Z,7.22
2019-01-20T12:39:08.777Z,6.85
2019-01-20T12:41:38.434Z,6.28
2019-01-20T12:44:08.342Z,6.97
2019-01-20T12:46:38.360Z,7.28
2019-01-20T12:49:08.110Z,6.83
2019-01-20T12:51:37.994Z,6.58
2019-01-20T12:54:07.728Z,6.70
2019-01-20T12:56:37.404Z,6.17
2019-01-20T12:59:07.040Z,6.45
2019-01-20T13:01:36.943Z,7.12
2019-01-20T13:04:07.009Z,6.83
2019-01-20T13:06:36.861Z,6.58
2019-01-20T13:09:09.156Z,6.10
2019-01-20T13:11:38.819Z,6.45
2019-01-20T13:14:08.789Z,6.22
2019-01-20T13:16:38.525Z,6.65
2019-01-20T13:19:08.498Z,6.40
2019-01-20T13:21:38.106Z,6.25
2019-01-20T13:24:07.690Z,6.28
2019-01-20T13:26:37.301Z,6.60
2019-01-20T13:29:07.372Z,7.00
2019-01-20T13:31:37.173Z,6.00
2019-01-20T13:34:06.965Z,5.90
2019-01-20T13:36:37.324Z,5.70
2019-01-20T13:39:10.666Z,6.03
2019-01-20T13:41:40.463Z,6.20
2019-01-20T13:44:10.333Z,5.62
2019-01-20T13:46:40.034Z,6.35
2019-01-20T13:49:09.644Z,5.58
2019-01-20T13:51:39.451Z,6.47
2019-01-20T13:54:09.500Z,6.22
2019-01-20T13:56:39.162Z,6.20
2019-01-20T13:59:08.970Z,5.75
2019-01-20T14:01:39.759Z,5.35
2019-01-20T14:04:09.413Z,6.17
2019-01-20T14:06:39.334Z,5.85
2019-01-20T14:09:09.524Z,6.10
2019-01-20T14:11:39.097Z,5.83
2019-01-20T14:14:08.685Z,6.17
2019-01-20T14:16:38.380Z,5.33
2019-01-20T14:19:08.154Z,5.62
2019-01-20T14:21:37.915Z,5.83
2019-01-20T14:24:08.107Z,5.33
2019-01-20T14:26:37.996Z,5.58
2019-01-20T14:29:07.937Z,5.95
2019-01-20T14:31:38.167Z,5.75
2019-01-20T14:34:07.922Z,5.95
2019-01-20T14:36:37.569Z,6.28
2019-01-20T14:39:12.989Z,6.20
2019-01-20T14:41:42.569Z,6.03
2019-01-20T14:44:12.467Z,5.60
2019-01-20T14:46:42.431Z,5.83
2019-01-20T14:49:12.190Z,5.83
2019-01-20T14:51:42.007Z,6.08
2019-01-20T14:54:11.927Z,5.40
2019-01-20T14:56:41.523Z,6.10
2019-01-20T14:59:11.343Z,7.00
2019-01-20T15:01:40.967Z,6.03
2019-01-20T15:04:10.897Z,6.10
2019-01-20T15:06:40.700Z,6.10
2019-01-20T15:09:10.515Z,5.92
2019-01-20T15:11:40.119Z,6.17
2019-01-20T15:14:10.073Z,6.05
2019-01-20T15:16:39.648Z,6.20
2019-01-20T15:19:09.446Z,6.10
2019-01-20T15:21:39.052Z,6.40
2019-01-20T15:24:08.708Z,6.67
2019-01-20T15:26:38.468Z,7.28
2019-01-20T15:29:08.293Z,8.53
2019-01-20T15:31:38.232Z,10.75
2019-01-20T15:34:07.964Z,11.35
2019-01-20T15:36:37.736Z,12.45
2019-01-20T15:39:08.237Z,12.70
2019-01-20T15:41:37.882Z,13.18
2019-01-20T15:44:07.583Z,15.95
2019-01-20T15:46:37.287Z,15.70
2019-01-20T15:49:07.145Z,20.43
2019-01-20T15:51:36.916Z,20.25
2019-01-20T15:54:06.749Z,21.12
2019-01-20T15:56:36.438Z,20.23
2019-01-20T15:59:06.192Z,20.15
2019-01-20T16:01:35.855Z,19.92
2019-01-20T16:04:05.499Z,20.10
2019-01-20T16:06:35.113Z,18.62
2019-01-20T16:09:06.559Z,18.23
2019-01-20T16:11:36.252Z,19.57
2019-01-20T16:14:06.088Z,18.87
2019-01-20T16:16:35.699Z,19.48
2019-01-20T16:19:05.469Z,18.55
2019-01-20T16:21:35.108Z,18.15
2019-01-20T16:24:04.953Z,17.37
2019-01-20T16:26:34.716Z,17.30
2019-01-20T16:29:04.441Z,17.27
2019-01-20T16:31:39.808Z,18.20
2019-01-20T16:34:05.631Z,17.25
2019-01-20T16:36:35.326Z,17.80
2019-01-20T16:39:07.471Z,17.57
2019-01-20T16:41:37.171Z,18.20
2019-01-20T16:44:07.030Z,18.50
2019-01-20T16:46:36.903Z,17.67
2019-01-20T16:49:06.660Z,16.80
2019-01-20T16:51:36.499Z,17.25
2019-01-20T16:54:06.165Z,16.85
2019-01-20T16:56:35.763Z,16.97
2019-01-20T16:59:05.576Z,16.42
2019-01-20T17:01:35.475Z,17.40
2019-01-20T17:04:05.206Z,16.97
2019-01-20T17:06:34.763Z,16.60
2019-01-20T17:09:05.700Z,16.82
2019-01-20T17:11:35.446Z,16.90
2019-01-20T17:14:05.223Z,16.35
2019-01-20T17:16:36.285Z,15.95
2019-01-20T17:19:06.143Z,16.35
2019-01-20T17:21:37.393Z,16.10
2019-01-20T17:24:07.390Z,15.03
2019-01-20T17:26:37.236Z,15.50
2019-01-20T17:29:06.999Z,16.35
2019-01-20T17:31:36.938Z,15.30
2019-01-20T17:34:06.674Z,14.33
2019-01-20T17:36:36.477Z,14.75
2019-01-20T17:39:12.023Z,15.08
2019-01-20T17:41:40.378Z,14.63
2019-01-20T17:44:10.099Z,15.28
2019-01-20T17:46:41.360Z,14.85
2019-01-20T17:49:11.039Z,15.55
2019-01-20T17:51:43.506Z,14.33
2019-01-20T17:54:14.822Z,14.90
2019-01-20T17:56:44.606Z,15.53
2019-01-20T17:59:14.331Z,14.75
2019-01-20T18:01:43.998Z,14.75
2019-01-20T18:04:13.860Z,14.38
2019-01-20T18:06:44.713Z,13.85
2019-01-20T18:09:14.484Z,13.30
2019-01-20T18:11:44.100Z,14.43
2019-01-20T18:14:13.786Z,13.83
2019-01-20T18:16:43.724Z,13.85
2019-01-20T18:19:13.427Z,14.03
2019-01-20T18:21:43.165Z,14.18
2019-01-20T18:24:12.921Z,13.80
2019-01-20T18:26:42.641Z,14.07
2019-01-20T18:29:12.378Z,15.88
2019-01-20T18:31:42.101Z,15.10
2019-01-20T18:34:11.771Z,15.25
2019-01-20T18:36:41.504Z,15.68
2019-01-20T18:39:11.097Z,15.70
2019-01-20T18:41:40.809Z,16.65
2019-01-20T18:44:10.560Z,16.35
2019-01-20T18:46:40.269Z,16.40
2019-01-20T18:49:09.934Z,16.57
2019-01-20T18:51:39.651Z,16.35
2019-01-20T18:54:09.471Z,16.48
2019-01-20T18:56:39.292Z,16.12
2019-01-20T18:59:08.991Z,15.85
2019-01-20T19:01:38.727Z,16.75
2019-01-20T19:04:08.325Z,15.78
2019-01-20T19:06:37.930Z,16.10
2019-01-20T19:09:08.363Z,15.45
2019-01-20T19:11:38.063Z,15.55
2019-01-20T19:14:07.758Z,15.78
2019-01-20T19:16:37.484Z,15.03
2019-01-20T19:19:07.137Z,15.18
2019-01-20T19:21:36.806Z,15.88
2019-01-20T19:24:06.540Z,15.68
2019-01-20T19:26:36.215Z,15.28
2019-01-20T19:29:05.845Z,15.20
2019-01-20T19:31:35.623Z,15.75
2019-01-20T19:34:05.258Z,16.30
2019-01-20T19:36:35.082Z,15.85
2019-01-20T19:39:04.807Z,16.82
2019-01-20T19:41:34.564Z,16.27
2019-01-20T19:44:04.390Z,16.15
2019-01-20T19:46:34.118Z,16.12
2019-01-20T19:49:03.810Z,15.08
2019-01-20T19:51:33.358Z,16.40
2019-01-20T19:54:03.037Z,15.20
2019-01-20T19:56:32.742Z,16.10
2019-01-20T19:59:02.551Z,16.17
2019-01-20T20:01:32.294Z,15.48
2019-01-20T20:04:01.905Z,15.75
2019-01-20T20:06:31.596Z,16.00
2019-01-20T20:09:01.348Z,16.00
2019-01-20T20:11:31.021Z,16.25
2019-01-20T20:14:00.638Z,15.08
2019-01-20T20:16:30.373Z,15.53
2019-01-20T20:19:00.035Z,14.47
2019-01-20T20:21:29.687Z,16.12
2019-01-20T20:23:59.354Z,15.80
2019-01-20T20:26:28.988Z,15.45
2019-01-20T20:28:58.712Z,16.05
2019-01-20T20:31:28.392Z,14.47
2019-01-20T20:33:58.092Z,16.10
2019-01-20T20:36:27.913Z,15.35
2019-01-20T20:38:57.624Z,15.25
2019-01-20T20:41:27.377Z,13.85
2019-01-20T20:43:56.968Z,15.10
2019-01-20T20:46:30.649Z,14.68
2019-01-20T20:48:58.129Z,14.73
2019-01-20T20:51:27.925Z,15.20
2019-01-20T20:53:57.641Z,14.15
2019-01-20T20:56:27.354Z,15.78
2019-01-20T20:58:57.907Z,15.70
2019-01-20T21:01:27.610Z,15.78
2019-01-20T21:03:57.218Z,16.48
2019-01-20T21:06:26.899Z,15.75
2019-01-20T21:08:56.622Z,15.03
2019-01-20T21:11:26.323Z,15.50
2019-01-20T21:13:55.967Z,15.70
2019-01-20T21:16:25.554Z,15.43
2019-01-20T21:18:55.291Z,16.20
2019-01-20T21:21:26.654Z,16.80
2019-01-20T21:23:56.444Z,16.02
2019-01-20T21:26:26.116Z,15.35
2019-01-20T21:28:55.768Z,15.08
2019-01-20T21:31:25.563Z,16.37
2019-01-20T21:33:55.395Z,16.60
2019-01-20T21:36:25.072Z,16.15
2019-01-20T21:38:54.813Z,15.32
2019-01-20T21:41:24.488Z,15.80
2019-01-20T21:43:54.219Z,16.85
2019-01-20T21:46:23.850Z,15.72
2019-01-20T21:48:53.625Z,15.88
2019-01-20T21:51:23.150Z,16.35
2019-01-20T21:53:52.848Z,15.70
2019-01-20T21:56:22.468Z,16.25
2019-01-20T21:58:52.157Z,16.30
2019-01-20T22:01:21.875Z,16.62
2019-01-20T22:03:51.518Z,16.17
2019-01-20T22:06:21.193Z,15.48
2019-01-20T22:08:50.829Z,16.62
2019-01-20T22:11:20.506Z,16.55
2019-01-20T22:13:50.189Z,17.07
2019-01-20T22:16:19.938Z,17.42
2019-01-20T22:18:49.667Z,17.70
2019-01-20T22:21:19.343Z,16.17
2019-01-20T22:23:49.069Z,17.45
2019-01-20T22:26:18.794Z,16.65
2019-01-20T22:28:48.596Z,17.05
2019-01-20T22:31:18.223Z,16.97
2019-01-20T22:33:47.917Z,16.27
2019-01-20T22:36:17.637Z,16.52
2019-01-20T22:38:47.282Z,17.30
2019-01-20T22:41:16.956Z,15.35
2019-01-20T22:43:46.709Z,15.45
2019-01-20T22:46:16.379Z,15.75
2019-01-20T22:48:46.073Z,15.30
2019-01-20T22:51:15.784Z,15.80
2019-01-20T22:53:45.470Z,16.48
2019-01-20T22:56:15.200Z,15.58
2019-01-20T22:58:44.832Z,15.40
2019-01-20T23:01:22.921Z,16.07
2019-01-20T23:03:52.530Z,15.63
2019-01-20T23:06:22.262Z,14.78
2019-01-20T23:08:51.991Z,15.90
2019-01-20T23:11:21.662Z,15.58
2019-01-20T23:13:51.375Z,15.25
2019-01-20T23:16:21.196Z,15.25
2019-01-20T23:18:50.995Z,16.02
2019-01-20T23:21:20.709Z,15.75
2019-01-20T23:23:50.423Z,15.83
2019-01-20T23:26:20.129Z,15.40
2019-01-20T23:28:49.927Z,16.02
2019-01-20T23:31:19.767Z,14.90
2019-01-20T23:33:49.424Z,15.63
2019-01-20T23:36:19.184Z,15.35
2019-01-20T23:38:48.812Z,14.47
2019-01-20T23:41:18.614Z,15.55
2019-01-20T23:43:48.267Z,15.98
2019-01-20T23:46:17.923Z,14.40
2019-01-20T23:48:47.655Z,14.90
2019-01-20T23:51:17.294Z,14.78
2019-01-20T23:53:46.947Z,14.70
2019-01-20T23:56:16.586Z,15.25
2019-01-20T23:58:46.269Z,14.80
